createdAt,value
2017-03-12T00:00:27.758Z,1015.04
2017-03-12T00:01:38.025Z,1015.05
2017-03-12T00:02:48.271Z,1015.03
2017-03-12T00:03:58.486Z,1015.05
2017-03-12T00:05:07.568Z,1015.03
2017-03-12T00:06:16.637Z,1015.03
2017-03-12T00:07:26.128Z,1015.03
2017-03-12T00:08:35.970Z,1015.01
2017-03-12T00:09:46.250Z,1015.03
2017-03-12T00:10:55.754Z,1015.05
2017-03-12T00:12:06.234Z,1015.04
2017-03-12T00:13:16.168Z,1015.01
2017-03-12T00:14:26.417Z,1015.01
2017-03-12T00:15:36.268Z,1015.04
2017-03-12T00:16:46.543Z,1014.98
2017-03-12T00:17:56.826Z,1014.97
2017-03-12T00:19:07.140Z,1015.02
2017-03-12T00:20:17.378Z,1015
2017-03-12T00:21:26.902Z,1015.06
2017-03-12T00:22:36.754Z,1015.05
2017-03-12T00:23:46.482Z,1015.07
2017-03-12T00:24:56.770Z,1015.04
2017-03-12T00:26:06.298Z,1015.09
2017-03-12T00:27:15.781Z,1015.07
2017-03-12T00:28:25.340Z,1015.11
2017-03-12T00:29:34.803Z,1015.13
2017-03-12T00:30:44.658Z,1015.13
2017-03-12T00:31:54.887Z,1015.08
2017-03-12T00:33:03.970Z,1015.1
2017-03-12T00:34:13.470Z,1015.11
2017-03-12T00:35:23.663Z,1015.07
2017-03-12T00:36:33.762Z,1015.1
2017-03-12T00:37:44.395Z,1015.1
2017-03-12T00:38:53.848Z,1015.09
2017-03-12T00:40:03.688Z,1015.08
2017-03-12T00:41:12.796Z,1015.1
2017-03-12T00:42:22.267Z,1015.09
2017-03-12T00:43:32.131Z,1015.09
2017-03-12T00:44:41.965Z,1015.06
2017-03-12T00:45:52.830Z,1015.06
2017-03-12T00:47:02.691Z,1015.07
2017-03-12T00:48:12.929Z,1015.07
2017-03-12T00:49:22.021Z,1015.04
2017-03-12T00:50:31.489Z,1015.03
2017-03-12T00:51:41.718Z,1015.05
2017-03-12T00:52:52.354Z,1015.02
2017-03-12T00:54:01.825Z,1014.95
2017-03-12T00:55:12.057Z,1014.99
2017-03-12T00:56:21.923Z,1014.96
2017-03-12T00:57:31.395Z,1014.95
2017-03-12T00:58:42.001Z,1014.94
2017-03-12T00:59:52.227Z,1014.91
2017-03-12T01:01:02.449Z,1014.9
2017-03-12T01:02:12.673Z,1014.88
2017-03-12T01:03:22.538Z,1014.9
2017-03-12T01:04:32.770Z,1014.81
2017-03-12T01:05:43.019Z,1014.88
2017-03-12T01:06:52.866Z,1014.87
2017-03-12T01:08:02.323Z,1014.86
2017-03-12T01:09:12.926Z,1014.86
2017-03-12T01:10:23.155Z,1014.87
2017-03-12T01:11:33.004Z,1014.89
2017-03-12T01:12:43.259Z,1014.84
2017-03-12T01:13:52.713Z,1014.9
2017-03-12T01:15:02.562Z,1014.86
2017-03-12T01:16:12.401Z,1014.89
2017-03-12T01:17:21.856Z,1014.86
2017-03-12T01:18:32.104Z,1014.93
2017-03-12T01:19:41.964Z,1014.91
2017-03-12T01:20:52.585Z,1014.95
2017-03-12T01:22:02.818Z,1014.92
2017-03-12T01:23:12.661Z,1014.88
2017-03-12T01:24:22.878Z,1014.87
2017-03-12T01:25:32.733Z,1014.84
2017-03-12T01:26:42.076Z,1014.89
2017-03-12T01:27:51.546Z,1014.85
2017-03-12T01:29:01.025Z,1014.81
2017-03-12T01:30:10.890Z,1014.84
2017-03-12T01:31:20.364Z,1014.82
2017-03-12T01:32:30.215Z,1014.83
2017-03-12T01:33:40.046Z,1014.85
2017-03-12T01:34:50.682Z,1014.86
2017-03-12T01:36:01.310Z,1014.87
2017-03-12T01:37:11.525Z,1014.91
2017-03-12T01:38:22.065Z,1014.87
2017-03-12T01:39:31.143Z,1014.84
2017-03-12T01:40:40.999Z,1014.85
2017-03-12T01:41:51.264Z,1014.82
2017-03-12T01:43:00.328Z,1014.83
2017-03-12T01:44:10.177Z,1014.83
2017-03-12T01:45:19.257Z,1014.84
2017-03-12T01:46:29.110Z,1014.84
2017-03-12T01:47:39.353Z,1014.84
2017-03-12T01:48:49.592Z,1014.91
2017-03-12T01:49:59.814Z,1014.88
2017-03-12T01:51:09.278Z,1014.85
2017-03-12T01:52:19.495Z,1014.83
2017-03-12T01:53:29.353Z,1014.85
2017-03-12T01:54:39.599Z,1014.81
2017-03-12T01:55:50.085Z,1014.78
2017-03-12T01:57:00.371Z,1014.73
2017-03-12T01:58:10.235Z,1014.71
2017-03-12T01:59:20.462Z,1014.71
2017-03-12T02:00:29.922Z,1014.7
2017-03-12T02:01:39.385Z,1014.74
2017-03-12T02:02:49.628Z,1014.67
2017-03-12T02:03:59.486Z,1014.7
2017-03-12T02:05:08.963Z,1014.67
2017-03-12T02:06:18.812Z,1014.68
2017-03-12T02:07:28.686Z,1014.66
2017-03-12T02:08:39.312Z,1014.69
2017-03-12T02:09:49.165Z,1014.69
2017-03-12T02:10:59.391Z,1014.63
2017-03-12T02:12:09.621Z,1014.63
2017-03-12T02:13:19.770Z,1014.63
2017-03-12T02:14:29.604Z,1014.59
2017-03-12T02:15:39.855Z,1014.57
2017-03-12T02:16:50.147Z,1014.56
2017-03-12T02:18:00.380Z,1014.54
2017-03-12T02:19:10.279Z,1014.52
2017-03-12T02:20:20.236Z,1014.52
2017-03-12T02:21:30.500Z,1014.5
2017-03-12T02:22:40.385Z,1014.48
2017-03-12T02:23:49.925Z,1014.45
2017-03-12T02:25:00.438Z,1014.44
2017-03-12T02:26:10.313Z,1014.4
2017-03-12T02:27:20.349Z,1014.44
2017-03-12T02:28:30.348Z,1014.39
2017-03-12T02:29:40.576Z,1014.37
2017-03-12T02:30:50.412Z,1014.36
2017-03-12T02:32:00.659Z,1014.37
2017-03-12T02:33:10.201Z,1014.34
2017-03-12T02:34:19.299Z,1014.29
2017-03-12T02:35:28.464Z,1014.31
2017-03-12T02:36:38.777Z,1014.31
2017-03-12T02:37:49.377Z,1014.29
2017-03-12T02:38:59.684Z,1014.28
2017-03-12T02:40:09.612Z,1014.25
2017-03-12T02:41:19.482Z,1014.21
2017-03-12T02:42:29.597Z,1014.24
2017-03-12T02:43:39.103Z,1014.3
2017-03-12T02:44:49.387Z,1014.26
2017-03-12T02:45:59.238Z,1014.22
2017-03-12T02:47:09.884Z,1014.24
2017-03-12T02:48:20.136Z,1014.29
2017-03-12T02:49:30.741Z,1014.27
2017-03-12T02:50:40.219Z,1014.28
2017-03-12T02:51:50.072Z,1014.28
2017-03-12T02:52:59.928Z,1014.36
2017-03-12T02:54:10.030Z,1014.3
2017-03-12T02:55:18.742Z,1014.31
2017-03-12T02:56:28.966Z,1014.24
2017-03-12T02:57:38.834Z,1014.21
2017-03-12T02:58:49.100Z,1014.27
2017-03-12T02:59:58.626Z,1014.29
2017-03-12T03:01:08.505Z,1014.26
2017-03-12T03:02:18.768Z,1014.21
2017-03-12T03:03:28.259Z,1014.22
2017-03-12T03:04:38.141Z,1014.21
2017-03-12T03:05:46.992Z,1014.19
2017-03-12T03:06:56.247Z,1014.21
2017-03-12T03:08:06.130Z,1014.16
2017-03-12T03:09:15.591Z,1014.15
2017-03-12T03:10:25.460Z,1014.16
2017-03-12T03:11:35.945Z,1014.16
2017-03-12T03:12:45.787Z,1014.14
2017-03-12T03:13:55.620Z,1014.2
2017-03-12T03:15:05.882Z,1014.17
2017-03-12T03:16:16.126Z,1014.14
2017-03-12T03:17:25.198Z,1014.17
2017-03-12T03:18:35.426Z,1014.14
2017-03-12T03:19:45.263Z,1014.15
2017-03-12T03:20:55.499Z,1014.14
2017-03-12T03:22:05.742Z,1014.18
2017-03-12T03:23:15.873Z,1014.16
2017-03-12T03:24:25.125Z,1014.11
2017-03-12T03:25:33.969Z,1014.17
2017-03-12T03:26:43.614Z,1014.09
2017-03-12T03:27:53.184Z,1014.12
2017-03-12T03:29:02.415Z,1014.08
2017-03-12T03:30:11.632Z,1014.1
2017-03-12T03:31:20.456Z,1014.12
2017-03-12T03:32:29.740Z,1014.03
2017-03-12T03:33:39.036Z,1013.99
2017-03-12T03:34:48.264Z,1013.98
2017-03-12T03:35:58.311Z,1014.04
2017-03-12T03:37:07.513Z,1013.97
2017-03-12T03:38:16.330Z,1013.99
2017-03-12T03:39:26.206Z,1014.06
2017-03-12T03:40:35.941Z,1014.02
2017-03-12T03:41:45.775Z,1014.03
2017-03-12T03:42:56.024Z,1013.99
2017-03-12T03:44:05.470Z,1014.04
2017-03-12T03:45:14.549Z,1014.05
2017-03-12T03:46:24.384Z,1014.01
2017-03-12T03:47:34.989Z,1014.01
2017-03-12T03:48:44.465Z,1013.97
2017-03-12T03:49:54.305Z,1013.96
2017-03-12T03:51:03.782Z,1013.96
2017-03-12T03:52:13.505Z,1013.9
2017-03-12T03:53:23.727Z,1013.91
2017-03-12T03:54:33.190Z,1013.96
2017-03-12T03:55:42.665Z,1013.94
2017-03-12T03:56:51.746Z,1013.94
2017-03-12T03:58:01.987Z,1013.93
2017-03-12T03:59:11.855Z,1013.9
2017-03-12T04:00:22.081Z,1013.89
2017-03-12T04:01:32.343Z,1013.89
2017-03-12T04:02:41.793Z,1013.86
2017-03-12T04:03:52.015Z,1013.83
2017-03-12T04:05:01.856Z,1013.8
2017-03-12T04:06:12.083Z,1013.78
2017-03-12T04:07:21.911Z,1013.84
2017-03-12T04:08:31.759Z,1013.82
2017-03-12T04:09:41.790Z,1013.83
2017-03-12T04:10:52.022Z,1013.74
2017-03-12T04:12:02.640Z,1013.79
2017-03-12T04:13:12.488Z,1013.78
2017-03-12T04:14:22.332Z,1013.76
2017-03-12T04:15:32.579Z,1013.74
2017-03-12T04:16:42.795Z,1013.7
2017-03-12T04:17:53.411Z,1013.71
2017-03-12T04:19:02.875Z,1013.69
2017-03-12T04:20:12.734Z,1013.69
2017-03-12T04:21:22.606Z,1013.7
2017-03-12T04:22:32.481Z,1013.71
2017-03-12T04:23:42.701Z,1013.71
2017-03-12T04:24:51.802Z,1013.69
2017-03-12T04:26:01.656Z,1013.69
2017-03-12T04:27:10.983Z,1013.64
2017-03-12T04:28:20.863Z,1013.64
2017-03-12T04:29:31.104Z,1013.65
2017-03-12T04:30:40.558Z,1013.64
2017-03-12T04:31:50.800Z,1013.61
2017-03-12T04:33:00.631Z,1013.58
2017-03-12T04:34:10.486Z,1013.6
2017-03-12T04:35:20.702Z,1013.58
2017-03-12T04:36:30.555Z,1013.57
2017-03-12T04:37:40.047Z,1013.58
2017-03-12T04:38:49.788Z,1013.6
2017-03-12T04:39:58.862Z,1013.61
2017-03-12T04:41:07.963Z,1013.64
2017-03-12T04:42:17.845Z,1013.63
2017-03-12T04:43:28.107Z,1013.64
2017-03-12T04:44:37.219Z,1013.63
2017-03-12T04:45:47.081Z,1013.58
2017-03-12T04:46:57.325Z,1013.62
2017-03-12T04:48:07.204Z,1013.62
2017-03-12T04:49:16.294Z,1013.54
2017-03-12T04:50:25.749Z,1013.59
2017-03-12T04:51:35.603Z,1013.55
2017-03-12T04:52:45.490Z,1013.54
2017-03-12T04:53:55.815Z,1013.52
2017-03-12T04:55:05.830Z,1013.51
2017-03-12T04:56:15.864Z,1013.53
2017-03-12T04:57:25.986Z,1013.55
2017-03-12T04:58:36.545Z,1013.57
2017-03-12T04:59:46.123Z,1013.54
2017-03-12T05:00:56.349Z,1013.58
2017-03-12T05:02:05.911Z,1013.53
2017-03-12T05:03:16.555Z,1013.55
2017-03-12T05:04:26.386Z,1013.5
2017-03-12T05:05:36.664Z,1013.54
2017-03-12T05:06:47.300Z,1013.53
2017-03-12T05:07:57.582Z,1013.55
2017-03-12T05:09:07.828Z,1013.5
2017-03-12T05:10:17.685Z,1013.49
2017-03-12T05:11:27.601Z,1013.49
2017-03-12T05:12:37.110Z,1013.49
2017-03-12T05:13:47.600Z,1013.43
2017-03-12T05:14:57.927Z,1013.5
2017-03-12T05:16:07.806Z,1013.49
2017-03-12T05:17:17.663Z,1013.45
2017-03-12T05:18:27.504Z,1013.45
2017-03-12T05:19:37.789Z,1013.47
2017-03-12T05:20:47.253Z,1013.49
2017-03-12T05:21:57.489Z,1013.44
2017-03-12T05:23:07.014Z,1013.45
2017-03-12T05:24:16.891Z,1013.46
2017-03-12T05:25:27.447Z,1013.45
2017-03-12T05:26:37.732Z,1013.41
2017-03-12T05:27:47.568Z,1013.49
2017-03-12T05:28:57.403Z,1013.46
2017-03-12T05:30:07.680Z,1013.48
2017-03-12T05:31:16.755Z,1013.5
2017-03-12T05:32:26.236Z,1013.51
2017-03-12T05:33:36.080Z,1013.49
2017-03-12T05:34:45.967Z,1013.48
2017-03-12T05:35:56.585Z,1013.47
2017-03-12T05:37:06.050Z,1013.45
2017-03-12T05:38:16.267Z,1013.49
2017-03-12T05:39:26.874Z,1013.5
2017-03-12T05:40:37.482Z,1013.51
2017-03-12T05:41:47.333Z,1013.48
2017-03-12T05:42:57.433Z,1013.48
2017-03-12T05:44:06.519Z,1013.51
2017-03-12T05:45:16.394Z,1013.48
2017-03-12T05:46:25.643Z,1013.5
2017-03-12T05:47:35.572Z,1013.52
2017-03-12T05:48:45.421Z,1013.51
2017-03-12T05:49:55.655Z,1013.49
2017-03-12T05:51:05.172Z,1013.48
2017-03-12T05:52:14.647Z,1013.47
2017-03-12T05:53:24.141Z,1013.51
2017-03-12T05:54:33.616Z,1013.46
2017-03-12T05:55:43.509Z,1013.47
2017-03-12T05:56:53.373Z,1013.44
2017-03-12T05:58:03.638Z,1013.44
2017-03-12T05:59:13.090Z,1013.43
2017-03-12T06:00:23.270Z,1013.46
2017-03-12T06:01:33.504Z,1013.38
2017-03-12T06:02:43.767Z,1013.39
2017-03-12T06:03:54.010Z,1013.4
2017-03-12T06:05:02.743Z,1013.45
2017-03-12T06:06:12.264Z,1013.45
2017-03-12T06:07:22.109Z,1013.45
2017-03-12T06:08:31.953Z,1013.45
2017-03-12T06:09:42.605Z,1013.5
2017-03-12T06:10:51.734Z,1013.51
2017-03-12T06:12:01.835Z,1013.51
2017-03-12T06:13:12.085Z,1013.49
2017-03-12T06:14:22.339Z,1013.5
2017-03-12T06:15:32.189Z,1013.48
2017-03-12T06:16:42.792Z,1013.45
2017-03-12T06:17:53.052Z,1013.47
2017-03-12T06:19:03.275Z,1013.46
2017-03-12T06:20:12.792Z,1013.47
2017-03-12T06:21:23.392Z,1013.48
2017-03-12T06:22:32.478Z,1013.44
2017-03-12T06:23:42.958Z,1013.47
2017-03-12T06:24:52.540Z,1013.44
2017-03-12T06:26:02.423Z,1013.45
2017-03-12T06:27:11.883Z,1013.48
2017-03-12T06:28:21.857Z,1013.47
2017-03-12T06:29:31.806Z,1013.46
2017-03-12T06:30:41.677Z,1013.46
2017-03-12T06:31:52.285Z,1013.49
2017-03-12T06:33:02.525Z,1013.49
2017-03-12T06:34:12.395Z,1013.47
2017-03-12T06:35:22.237Z,1013.42
2017-03-12T06:36:31.370Z,1013.43
2017-03-12T06:37:41.992Z,1013.45
2017-03-12T06:38:52.214Z,1013.42
2017-03-12T06:40:02.069Z,1013.38
2017-03-12T06:41:11.135Z,1013.44
2017-03-12T06:42:21.359Z,1013.46
2017-03-12T06:43:31.216Z,1013.5
2017-03-12T06:44:41.056Z,1013.42
2017-03-12T06:45:50.905Z,1013.45
2017-03-12T06:47:01.001Z,1013.45
2017-03-12T06:48:11.237Z,1013.48
2017-03-12T06:49:21.854Z,1013.48
2017-03-12T06:50:31.318Z,1013.48
2017-03-12T06:51:41.173Z,1013.51
2017-03-12T06:52:51.405Z,1013.53
2017-03-12T06:54:01.283Z,1013.54
2017-03-12T06:55:11.127Z,1013.57
2017-03-12T06:56:20.600Z,1013.56
2017-03-12T06:57:30.459Z,1013.57
2017-03-12T06:58:40.548Z,1013.56
2017-03-12T06:59:50.408Z,1013.61
2017-03-12T07:01:00.247Z,1013.58
2017-03-12T07:02:10.108Z,1013.6
2017-03-12T07:03:20.331Z,1013.58
2017-03-12T07:04:30.169Z,1013.59
2017-03-12T07:05:40.030Z,1013.6
2017-03-12T07:06:50.293Z,1013.6
2017-03-12T07:08:00.145Z,1013.59
2017-03-12T07:09:10.365Z,1013.63
2017-03-12T07:10:20.846Z,1013.57
2017-03-12T07:11:29.552Z,1013.54
2017-03-12T07:12:39.773Z,1013.59
2017-03-12T07:13:50.373Z,1013.53
2017-03-12T07:15:00.607Z,1013.64
2017-03-12T07:16:10.455Z,1013.61
2017-03-12T07:17:20.318Z,1013.62
2017-03-12T07:18:30.163Z,1013.61
2017-03-12T07:19:39.999Z,1013.63
2017-03-12T07:20:50.222Z,1013.62
2017-03-12T07:22:00.721Z,1013.6
2017-03-12T07:23:10.561Z,1013.65
2017-03-12T07:24:20.412Z,1013.63
2017-03-12T07:25:30.631Z,1013.57
2017-03-12T07:26:41.232Z,1013.57
2017-03-12T07:27:51.143Z,1013.62
2017-03-12T07:29:01.368Z,1013.56
2017-03-12T07:30:10.453Z,1013.61
2017-03-12T07:31:21.116Z,1013.56
2017-03-12T07:32:30.981Z,1013.55
2017-03-12T07:33:40.562Z,1013.56
2017-03-12T07:34:50.815Z,1013.55
2017-03-12T07:36:01.074Z,1013.54
2017-03-12T07:37:11.001Z,1013.52
2017-03-12T07:38:20.509Z,1013.56
2017-03-12T07:39:30.459Z,1013.54
2017-03-12T07:40:40.681Z,1013.53
2017-03-12T07:41:51.336Z,1013.5
2017-03-12T07:43:01.628Z,1013.52
2017-03-12T07:44:11.876Z,1013.56
2017-03-12T07:45:22.094Z,1013.53
2017-03-12T07:46:32.337Z,1013.52
2017-03-12T07:47:42.674Z,1013.55
2017-03-12T07:48:52.896Z,1013.58
2017-03-12T07:50:02.730Z,1013.58
2017-03-12T07:51:13.030Z,1013.53
2017-03-12T07:52:22.506Z,1013.56
2017-03-12T07:53:32.772Z,1013.56
2017-03-12T07:54:43.052Z,1013.54
2017-03-12T07:55:52.183Z,1013.59
2017-03-12T07:57:02.030Z,1013.54
2017-03-12T07:58:12.638Z,1013.54
2017-03-12T07:59:21.384Z,1013.55
2017-03-12T08:00:31.270Z,1013.54
2017-03-12T08:01:41.156Z,1013.56
2017-03-12T08:02:51.761Z,1013.53
2017-03-12T08:04:02.367Z,1013.5
2017-03-12T08:05:11.872Z,1013.52
2017-03-12T08:06:20.954Z,1013.55
2017-03-12T08:07:31.175Z,1013.5
2017-03-12T08:08:41.037Z,1013.52
2017-03-12T08:09:50.895Z,1013.49
2017-03-12T08:11:00.383Z,1013.52
2017-03-12T08:12:09.882Z,1013.5
2017-03-12T08:13:19.728Z,1013.45
2017-03-12T08:14:29.991Z,1013.45
2017-03-12T08:15:40.206Z,1013.48
2017-03-12T08:16:50.830Z,1013.5
2017-03-12T08:18:00.283Z,1013.52
2017-03-12T08:19:09.733Z,1013.53
2017-03-12T08:20:19.055Z,1013.53
2017-03-12T08:21:28.903Z,1013.55
2017-03-12T08:22:39.129Z,1013.58
2017-03-12T08:23:49.366Z,1013.62
2017-03-12T08:24:59.586Z,1013.59
2017-03-12T08:26:09.067Z,1013.63
2017-03-12T08:27:18.519Z,1013.59
2017-03-12T08:28:28.392Z,1013.59
2017-03-12T08:29:37.469Z,1013.64
2017-03-12T08:30:46.918Z,1013.68
2017-03-12T08:31:57.045Z,1013.64
2017-03-12T08:33:07.308Z,1013.65
2017-03-12T08:34:17.158Z,1013.66
2017-03-12T08:35:27.014Z,1013.68
2017-03-12T08:36:36.123Z,1013.67
2017-03-12T08:37:45.969Z,1013.7
2017-03-12T08:38:55.816Z,1013.69
2017-03-12T08:40:06.047Z,1013.75
2017-03-12T08:41:15.521Z,1013.68
2017-03-12T08:42:25.383Z,1013.67
2017-03-12T08:43:35.094Z,1013.68
2017-03-12T08:44:44.934Z,1013.65
2017-03-12T08:45:55.192Z,1013.66
2017-03-12T08:47:05.052Z,1013.68
2017-03-12T08:48:14.907Z,1013.69
2017-03-12T08:49:25.160Z,1013.74
2017-03-12T08:50:35.387Z,1013.75
2017-03-12T08:51:45.612Z,1013.74
2017-03-12T08:52:55.838Z,1013.74
2017-03-12T08:54:05.335Z,1013.75
2017-03-12T08:55:14.658Z,1013.75
2017-03-12T08:56:24.148Z,1013.78
2017-03-12T08:57:33.651Z,1013.79
2017-03-12T08:58:43.121Z,1013.83
2017-03-12T08:59:53.353Z,1013.87
2017-03-12T09:01:02.816Z,1013.87
2017-03-12T09:02:12.302Z,1013.89
2017-03-12T09:03:22.158Z,1013.89
2017-03-12T09:04:32.014Z,1013.86
2017-03-12T09:05:41.859Z,1013.89
2017-03-12T09:06:52.422Z,1013.89
2017-03-12T09:08:02.295Z,1013.92
2017-03-12T09:09:12.179Z,1013.9
2017-03-12T09:10:21.286Z,1013.9
2017-03-12T09:11:31.186Z,1013.96
2017-03-12T09:12:40.660Z,1013.89
2017-03-12T09:13:50.513Z,1013.88
2017-03-12T09:14:59.981Z,1013.84
2017-03-12T09:16:10.213Z,1013.87
2017-03-12T09:17:19.332Z,1013.89
2017-03-12T09:18:29.499Z,1013.86
2017-03-12T09:19:39.397Z,1013.94
2017-03-12T09:20:49.324Z,1013.89
2017-03-12T09:21:58.449Z,1013.89
2017-03-12T09:23:08.339Z,1013.88
2017-03-12T09:24:17.848Z,1013.79
2017-03-12T09:25:27.400Z,1013.83
2017-03-12T09:26:36.523Z,1013.79
2017-03-12T09:27:46.426Z,1013.77
2017-03-12T09:28:55.908Z,1013.72
2017-03-12T09:30:05.786Z,1013.79
2017-03-12T09:31:15.790Z,1013.78
2017-03-12T09:32:25.400Z,1013.76
2017-03-12T09:33:35.649Z,1013.7
2017-03-12T09:34:45.922Z,1013.71
2017-03-12T09:35:56.178Z,1013.71
2017-03-12T09:37:06.404Z,1013.81
2017-03-12T09:38:16.309Z,1013.77
2017-03-12T09:39:26.155Z,1013.74
2017-03-12T09:40:34.868Z,1013.74
2017-03-12T09:41:44.220Z,1013.77
2017-03-12T09:42:53.317Z,1013.8
2017-03-12T09:44:02.805Z,1013.8
2017-03-12T09:45:11.917Z,1013.81
2017-03-12T09:46:21.777Z,1013.73
2017-03-12T09:47:31.117Z,1013.82
2017-03-12T09:48:41.630Z,1013.77
2017-03-12T09:49:51.494Z,1013.83
2017-03-12T09:51:00.968Z,1013.72
2017-03-12T09:52:10.844Z,1013.71
2017-03-12T09:53:20.183Z,1013.79
2017-03-12T09:54:30.411Z,1013.77
2017-03-12T09:55:39.885Z,1013.76
2017-03-12T09:56:49.770Z,1013.89
2017-03-12T09:58:00.405Z,1013.86
2017-03-12T09:59:10.255Z,1013.8
2017-03-12T10:00:20.107Z,1013.74
2017-03-12T10:01:30.356Z,1013.8
2017-03-12T10:02:40.239Z,1013.74
2017-03-12T10:03:50.095Z,1013.67
2017-03-12T10:05:00.213Z,1013.69
2017-03-12T10:06:09.681Z,1013.8
2017-03-12T10:07:19.931Z,1014.41
2017-03-12T10:08:29.394Z,1014.1
2017-03-12T10:09:39.250Z,1013.8
2017-03-12T10:10:49.118Z,1013.78
2017-03-12T10:11:58.591Z,1013.79
2017-03-12T10:13:07.689Z,1014.07
2017-03-12T10:14:17.547Z,1013.73
2017-03-12T10:15:27.464Z,1013.75
2017-03-12T10:16:37.589Z,1013.7
2017-03-12T10:17:47.913Z,1013.86
2017-03-12T10:18:57.772Z,1013.75
2017-03-12T10:20:07.288Z,1013.87
2017-03-12T10:21:17.003Z,1013.79
2017-03-12T10:22:26.798Z,1013.99
2017-03-12T10:23:36.357Z,1013.71
2017-03-12T10:24:46.094Z,1013.7
2017-03-12T10:25:56.192Z,1013.8
2017-03-12T10:27:06.045Z,1013.62
2017-03-12T10:28:16.379Z,1013.61
2017-03-12T10:29:25.864Z,1013.51
2017-03-12T10:30:35.712Z,1013.52
2017-03-12T10:31:44.804Z,1013.47
2017-03-12T10:32:54.680Z,1013.38
2017-03-12T10:34:04.813Z,1013.41
2017-03-12T10:35:14.280Z,1013.43
2017-03-12T10:36:23.394Z,1013.47
2017-03-12T10:37:32.865Z,1013.43
2017-03-12T10:38:42.734Z,1013.41
2017-03-12T10:39:52.625Z,1013.39
2017-03-12T10:41:01.414Z,1013.34
2017-03-12T10:42:10.503Z,1013.39
2017-03-12T10:43:20.386Z,1013.41
2017-03-12T10:44:29.486Z,1013.45
2017-03-12T10:45:38.586Z,1013.42
2017-03-12T10:46:48.049Z,1013.37
2017-03-12T10:47:57.910Z,1013.34
2017-03-12T10:49:08.168Z,1013.31
2017-03-12T10:50:18.443Z,1013.3
2017-03-12T10:51:28.299Z,1013.28
2017-03-12T10:52:38.166Z,1013.32
2017-03-12T10:53:47.289Z,1013.32
2017-03-12T10:54:57.141Z,1013.31
2017-03-12T10:56:06.989Z,1013.36
2017-03-12T10:57:16.468Z,1013.27
2017-03-12T10:58:26.352Z,1013.32
2017-03-12T10:59:36.206Z,1013.29
2017-03-12T11:00:46.863Z,1013.22
2017-03-12T11:01:56.429Z,1013.25
2017-03-12T11:03:06.283Z,1013.26
2017-03-12T11:04:16.174Z,1013.23
2017-03-12T11:05:26.064Z,1013.25
2017-03-12T11:06:35.581Z,1013.18
2017-03-12T11:07:45.446Z,1013.2
2017-03-12T11:08:54.905Z,1013.17
2017-03-12T11:10:04.064Z,1013.14
2017-03-12T11:11:14.754Z,1013.13
2017-03-12T11:12:24.652Z,1013.13
2017-03-12T11:13:34.533Z,1013.05
2017-03-12T11:14:44.468Z,1013.11
2017-03-12T11:15:53.978Z,1013.08
2017-03-12T11:17:03.837Z,1013.01
2017-03-12T11:18:14.112Z,1013.02
2017-03-12T11:19:23.987Z,1013.02
2017-03-12T11:20:35.685Z,1013.01
2017-03-12T11:21:45.170Z,1012.99
2017-03-12T11:22:54.348Z,1012.98
2017-03-12T11:24:03.834Z,1013
2017-03-12T11:25:13.704Z,1013
2017-03-12T11:26:23.571Z,1012.92
2017-03-12T11:27:33.061Z,1012.91
2017-03-12T11:28:43.016Z,1012.94
2017-03-12T11:29:52.524Z,1012.89
2017-03-12T11:31:02.030Z,1012.94
2017-03-12T11:32:11.370Z,1012.94
2017-03-12T11:33:20.859Z,1012.88
2017-03-12T11:34:30.722Z,1012.95
2017-03-12T11:35:39.839Z,1012.9
2017-03-12T11:36:49.316Z,1012.93
2017-03-12T11:37:59.322Z,1012.97
2017-03-12T11:39:08.860Z,1012.92
2017-03-12T11:40:18.733Z,1012.98
2017-03-12T11:41:28.203Z,1012.93
2017-03-12T11:42:38.072Z,1012.92
2017-03-12T11:43:48.062Z,1012.92
2017-03-12T11:44:57.929Z,1012.99
2017-03-12T11:46:07.429Z,1012.96
2017-03-12T11:47:17.087Z,1012.97
2017-03-12T11:48:26.448Z,1013
2017-03-12T11:49:35.672Z,1013.03
2017-03-12T11:50:44.881Z,1013.02
2017-03-12T11:51:54.783Z,1013.06
2017-03-12T11:53:04.669Z,1012.98
2017-03-12T11:54:13.811Z,1012.98
2017-03-12T11:55:24.060Z,1013.01
2017-03-12T11:56:33.572Z,1012.99
2017-03-12T11:57:43.036Z,1012.96
2017-03-12T11:58:52.126Z,1012.98
2017-03-12T12:00:01.602Z,1013.03
2017-03-12T12:01:10.932Z,1012.97
2017-03-12T12:02:20.421Z,1012.94
2017-03-12T12:03:30.291Z,1012.98
2017-03-12T12:04:39.773Z,1012.93
2017-03-12T12:05:49.228Z,1012.93
2017-03-12T12:06:58.688Z,1012.93
2017-03-12T12:08:08.947Z,1012.86
2017-03-12T12:09:18.423Z,1012.86
2017-03-12T12:10:27.148Z,1012.83
2017-03-12T12:11:37.410Z,1012.81
2017-03-12T12:12:47.678Z,1012.8
2017-03-12T12:13:57.900Z,1012.74
2017-03-12T12:15:07.749Z,1012.85
2017-03-12T12:16:17.604Z,1012.74
2017-03-12T12:17:27.074Z,1012.76
2017-03-12T12:18:37.301Z,1012.72
2017-03-12T12:19:47.565Z,1012.72
2017-03-12T12:20:57.498Z,1012.71
2017-03-12T12:22:07.368Z,1012.68
2017-03-12T12:23:16.870Z,1012.67
2017-03-12T12:24:26.723Z,1012.65
2017-03-12T12:25:36.612Z,1012.62
2017-03-12T12:26:46.865Z,1012.62
2017-03-12T12:27:56.349Z,1012.66
2017-03-12T12:29:05.848Z,1012.61
2017-03-12T12:30:16.341Z,1012.6
2017-03-12T12:31:26.640Z,1012.63
2017-03-12T12:32:36.914Z,1012.61
2017-03-12T12:33:46.830Z,1012.6
2017-03-12T12:34:56.739Z,1012.61
2017-03-12T12:36:06.249Z,1012.53
2017-03-12T12:37:16.501Z,1012.52
2017-03-12T12:38:26.011Z,1012.58
2017-03-12T12:39:35.478Z,1012.62
2017-03-12T12:40:45.050Z,1012.48
2017-03-12T12:41:55.535Z,1012.56
2017-03-12T12:43:05.774Z,1012.58
2017-03-12T12:44:16.011Z,1012.57
2017-03-12T12:45:26.250Z,1012.57
2017-03-12T12:46:36.195Z,1012.52
2017-03-12T12:47:46.359Z,1012.49
2017-03-12T12:48:57.150Z,1012.5
2017-03-12T12:50:06.658Z,1012.45
2017-03-12T12:51:16.888Z,1012.42
2017-03-12T12:52:27.580Z,1012.4
2017-03-12T12:53:37.061Z,1012.45
2017-03-12T12:54:47.291Z,1012.47
2017-03-12T12:55:57.916Z,1012.43
2017-03-12T12:57:08.181Z,1012.44
2017-03-12T12:58:18.042Z,1012.48
2017-03-12T12:59:28.293Z,1012.45
2017-03-12T13:00:37.793Z,1012.4
2017-03-12T13:01:48.045Z,1012.39
2017-03-12T13:02:58.280Z,1012.44
2017-03-12T13:04:08.902Z,1012.46
2017-03-12T13:05:18.397Z,1012.43
2017-03-12T13:06:28.647Z,1012.44
2017-03-12T13:07:39.390Z,1012.41
2017-03-12T13:08:48.814Z,1012.43
2017-03-12T13:09:58.925Z,1012.39
2017-03-12T13:11:09.639Z,1012.32
2017-03-12T13:12:19.905Z,1012.3
2017-03-12T13:13:30.282Z,1012.29
2017-03-12T13:14:40.533Z,1012.29
2017-03-12T13:15:50.025Z,1012.24
2017-03-12T13:16:59.885Z,1012.23
2017-03-12T13:18:10.546Z,1012.21
2017-03-12T13:19:20.406Z,1012.23
2017-03-12T13:20:29.882Z,1012.26
2017-03-12T13:21:39.353Z,1012.28
2017-03-12T13:22:49.250Z,1012.21
2017-03-12T13:23:59.490Z,1012.19
2017-03-12T13:25:09.352Z,1012.25
2017-03-12T13:26:19.637Z,1012.28
2017-03-12T13:27:29.874Z,1012.24
2017-03-12T13:28:40.107Z,1012.27
2017-03-12T13:29:50.340Z,1012.24
2017-03-12T13:30:59.432Z,1012.22
2017-03-12T13:32:08.531Z,1012.22
2017-03-12T13:33:18.387Z,1012.18
2017-03-12T13:34:28.659Z,1012.16
2017-03-12T13:35:38.508Z,1012.18
2017-03-12T13:36:48.753Z,1012.16
2017-03-12T13:37:59.364Z,1012.16
2017-03-12T13:39:08.833Z,1012.14
2017-03-12T13:40:19.424Z,1012.16
2017-03-12T13:41:29.669Z,1012.13
2017-03-12T13:42:39.547Z,1012.2
2017-03-12T13:43:49.790Z,1012.15
2017-03-12T13:45:00.468Z,1012.2
2017-03-12T13:46:10.705Z,1012.25
2017-03-12T13:47:20.954Z,1012.2
2017-03-12T13:48:30.429Z,1012.21
2017-03-12T13:49:39.915Z,1012.19
2017-03-12T13:50:49.827Z,1012.22
2017-03-12T13:52:00.358Z,1012.2
2017-03-12T13:53:09.456Z,1012.21
2017-03-12T13:54:19.317Z,1012.25
2017-03-12T13:55:29.167Z,1012.24
2017-03-12T13:56:38.677Z,1012.24
2017-03-12T13:57:48.542Z,1012.22
2017-03-12T13:58:58.401Z,1012.21
2017-03-12T14:00:09.041Z,1012.27
2017-03-12T14:01:18.503Z,1012.25
2017-03-12T14:02:27.600Z,1012.26
2017-03-12T14:03:37.871Z,1012.22
2017-03-12T14:04:47.726Z,1012.27
2017-03-12T14:05:57.599Z,1012.24
2017-03-12T14:07:07.486Z,1012.27
2017-03-12T14:08:17.344Z,1012.22